createdAt,value
2022-08-17T00:02:26.233Z,21.19
2022-08-17T00:05:33.178Z,21.19
2022-08-17T00:08:38.043Z,21.22
2022-08-17T00:11:42.758Z,21.18
2022-08-17T00:15:10.424Z,21.01
2022-08-17T00:19:04.185Z,21.02
2022-08-17T00:22:29.498Z,21.06
2022-08-17T00:25:03.331Z,20.99
2022-08-17T00:28:06.106Z,21.07
2022-08-17T00:31:10.865Z,20.90
2022-08-17T00:34:13.462Z,20.61
2022-08-17T00:37:17.432Z,20.72
2022-08-17T00:40:20.968Z,20.56
2022-08-17T00:43:31.753Z,20.54
2022-08-17T00:46:37.063Z,20.71
2022-08-17T00:49:39.605Z,20.70
2022-08-17T00:52:55.543Z,20.50
2022-08-17T00:55:59.900Z,20.53
2022-08-17T00:59:04.928Z,20.67
2022-08-17T01:02:10.632Z,20.53
2022-08-17T01:05:18.608Z,20.64
2022-08-17T01:08:27.085Z,20.70
2022-08-17T01:11:31.950Z,20.73
2022-08-17T01:14:34.571Z,20.69
2022-08-17T01:17:37.183Z,20.46
2022-08-17T01:20:48.646Z,20.36
2022-08-17T01:23:52.915Z,20.33
2022-08-17T01:26:56.583Z,20.28
2022-08-17T01:30:04.501Z,20.38
2022-08-17T01:33:27.112Z,20.52
2022-08-17T01:36:29.776Z,20.50
2022-08-17T01:39:36.604Z,20.41
2022-08-17T01:42:45.795Z,20.23
2022-08-17T01:46:03.794Z,20.30
2022-08-17T01:49:07.965Z,20.40
2022-08-17T01:52:12.994Z,20.22
2022-08-17T01:55:25.895Z,20.10
2022-08-17T01:58:29.938Z,20.21
2022-08-17T02:01:34.602Z,20.32
2022-08-17T02:04:37.307Z,20.31
2022-08-17T02:07:58.642Z,20.19
2022-08-17T02:11:06.297Z,20.29
2022-08-17T02:14:14.893Z,20.29
2022-08-17T02:17:17.503Z,20.28
2022-08-17T02:20:41.513Z,20.22
2022-08-17T02:23:47.422Z,20.21
2022-08-17T02:26:51.611Z,20.20
2022-08-17T02:29:54.221Z,20.16
2022-08-17T02:32:57.357Z,19.88
2022-08-17T02:36:00.104Z,19.85
2022-08-17T02:39:03.896Z,19.89
2022-08-17T02:42:08.018Z,19.98
2022-08-17T02:45:14.666Z,19.79
2022-08-17T02:48:17.287Z,19.85
2022-08-17T02:51:33.544Z,19.96
2022-08-17T02:54:40.471Z,20.02
2022-08-17T02:57:46.228Z,19.95
2022-08-17T03:00:48.902Z,19.95
2022-08-17T03:03:51.574Z,19.75
2022-08-17T03:06:54.197Z,19.89
2022-08-17T03:09:56.822Z,19.86
2022-08-17T03:13:01.630Z,19.90
2022-08-17T03:16:04.666Z,19.87
2022-08-17T03:19:07.256Z,19.79
2022-08-17T03:22:35.939Z,19.81
2022-08-17T03:25:35.123Z,19.87
2022-08-17T03:28:39.543Z,19.83
2022-08-17T03:31:42.159Z,19.82
2022-08-17T03:34:44.795Z,19.70
2022-08-17T03:37:47.826Z,19.65
2022-08-17T03:41:03.227Z,19.81
2022-08-17T03:44:07.233Z,19.77
2022-08-17T03:47:27.146Z,19.74
2022-08-17T03:50:47.320Z,19.41
2022-08-17T03:54:09.957Z,19.65
2022-08-17T03:57:13.262Z,19.69
2022-08-17T04:00:17.756Z,19.70
2022-08-17T04:03:20.304Z,19.66
2022-08-17T04:06:22.922Z,19.65
2022-08-17T04:09:25.555Z,19.61
2022-08-17T04:12:30.793Z,19.66
2022-08-17T04:15:35.098Z,19.59
2022-08-17T04:18:37.742Z,19.64
2022-08-17T04:21:40.437Z,19.64
2022-08-17T04:24:43.019Z,19.44
2022-08-17T04:27:45.615Z,19.43
2022-08-17T04:30:49.595Z,19.50
2022-08-17T04:33:52.331Z,19.58
2022-08-17T04:36:54.944Z,19.62
2022-08-17T04:40:11.528Z,19.53
2022-08-17T04:43:16.371Z,19.32
2022-08-17T04:46:26.071Z,19.27
2022-08-17T04:49:28.796Z,19.30
2022-08-17T04:52:43.466Z,19.54
2022-08-17T04:55:46.777Z,19.37
2022-08-17T04:58:51.364Z,19.44
2022-08-17T05:01:55.642Z,19.48
2022-08-17T05:04:58.278Z,19.50
2022-08-17T05:08:03.525Z,19.44
2022-08-17T05:11:08.235Z,19.48
2022-08-17T05:14:10.863Z,19.55
2022-08-17T05:17:14.970Z,19.53
2022-08-17T05:20:17.795Z,19.62
2022-08-17T05:23:22.676Z,19.89
2022-08-17T05:26:27.410Z,19.96
2022-08-17T05:29:35.575Z,20.05
2022-08-17T05:32:40.478Z,20.00
2022-08-17T05:35:46.907Z,20.15
2022-08-17T05:38:50.523Z,20.22
2022-08-17T05:41:53.092Z,20.26
2022-08-17T05:44:58.856Z,20.34
2022-08-17T05:48:02.900Z,20.35
2022-08-17T05:51:22.586Z,20.53
2022-08-17T05:54:35.246Z,20.33
2022-08-17T05:57:52.940Z,20.46
2022-08-17T06:01:04.351Z,20.60
2022-08-17T06:04:17.462Z,20.73
2022-08-17T06:07:26.408Z,20.88
2022-08-17T06:10:36.031Z,20.96
2022-08-17T06:13:57.561Z,20.89
2022-08-17T06:17:04.171Z,21.04
2022-08-17T06:20:12.243Z,21.11
2022-08-17T06:23:21.596Z,21.26
2022-08-17T06:26:30.294Z,21.35
2022-08-17T06:29:50.822Z,21.43
2022-08-17T06:32:56.549Z,21.51
2022-08-17T06:36:11.271Z,21.79
2022-08-17T06:39:31.264Z,21.81
2022-08-17T06:43:04.966Z,21.89
2022-08-17T06:46:11.331Z,22.24
2022-08-17T06:49:19.793Z,22.36
2022-08-17T06:52:42.216Z,22.45
2022-08-17T06:55:58.006Z,22.62
2022-08-17T06:59:02.280Z,22.69
2022-08-17T07:02:09.549Z,22.66
2022-08-17T07:05:14.188Z,22.78
2022-08-17T07:08:29.342Z,22.90
2022-08-17T07:11:39.423Z,22.96
2022-08-17T07:14:51.666Z,22.97
2022-08-17T07:17:54.362Z,23.10
2022-08-17T07:21:03.698Z,23.20
2022-08-17T07:24:30.254Z,23.35
2022-08-17T07:27:38.797Z,23.61
2022-08-17T07:30:48.875Z,23.81
2022-08-17T07:34:06.701Z,24.04
2022-08-17T07:37:09.302Z,24.11
2022-08-17T07:40:29.851Z,24.18
2022-08-17T07:43:34.884Z,24.34
2022-08-17T07:47:09.669Z,24.37
2022-08-17T07:50:27.109Z,24.52
2022-08-17T07:53:31.157Z,24.75
2022-08-17T07:56:40.993Z,24.89
2022-08-17T08:00:04.048Z,25.01
2022-08-17T08:03:27.010Z,25.24
2022-08-17T08:06:29.762Z,25.35
2022-08-17T08:09:39.482Z,25.57
2022-08-17T08:12:44.883Z,25.86
2022-08-17T08:15:53.557Z,25.98
2022-08-17T08:18:59.290Z,26.15
2022-08-17T08:22:11.061Z,26.19
2022-08-17T08:25:25.925Z,26.22
2022-08-17T08:28:43.328Z,26.41
2022-08-17T08:32:00.010Z,26.52
2022-08-17T08:35:07.274Z,26.62
2022-08-17T08:38:18.207Z,27.01
2022-08-17T08:41:34.554Z,27.48
2022-08-17T08:45:00.413Z,27.95
2022-08-17T08:48:45.962Z,28.17
2022-08-17T08:51:51.729Z,28.50
2022-08-17T08:54:59.666Z,28.76
2022-08-17T08:58:07.463Z,29.03
2022-08-17T09:01:38.025Z,29.11
2022-08-17T09:05:13.962Z,29.47
2022-08-17T09:08:22.006Z,29.82
2022-08-17T09:11:31.745Z,29.90
2022-08-17T09:14:46.824Z,29.75
2022-08-17T09:18:14.911Z,29.51
2022-08-17T09:21:29.667Z,29.81
2022-08-17T09:24:41.646Z,30.58
2022-08-17T09:27:54.725Z,30.87
2022-08-17T09:31:03.509Z,30.77
2022-08-17T09:34:12.325Z,31.36
2022-08-17T09:37:22.710Z,31.33
2022-08-17T09:40:29.763Z,31.12
2022-08-17T09:43:39.805Z,31.08
2022-08-17T09:46:49.174Z,31.81
2022-08-17T09:49:58.602Z,31.67
2022-08-17T09:53:01.307Z,31.55
2022-08-17T09:56:32.455Z,31.86
2022-08-17T09:59:54.278Z,32.21
2022-08-17T10:03:25.656Z,32.24
2022-08-17T10:06:33.678Z,32.25
2022-08-17T10:09:47.430Z,32.31
2022-08-17T10:12:58.514Z,32.25
2022-08-17T10:16:14.647Z,31.97
2022-08-17T10:19:24.019Z,31.88
2022-08-17T10:22:53.356Z,31.62
2022-08-17T10:26:14.021Z,32.07
2022-08-17T10:29:23.527Z,31.96
2022-08-17T10:32:34.618Z,32.97
2022-08-17T10:35:47.452Z,33.78
2022-08-17T10:39:04.018Z,33.56
2022-08-17T10:42:32.232Z,33.68
2022-08-17T10:45:46.968Z,33.00
2022-08-17T10:49:26.889Z,32.42
2022-08-17T10:52:49.912Z,32.22
2022-08-17T10:56:23.174Z,32.27
2022-08-17T10:59:50.653Z,32.66
2022-08-17T11:02:55.403Z,32.19
2022-08-17T11:06:06.433Z,31.44
2022-08-17T11:09:27.876Z,30.86
2022-08-17T11:12:42.488Z,30.76
2022-08-17T11:16:09.683Z,30.46
2022-08-17T11:19:41.220Z,30.38
2022-08-17T11:23:14.609Z,30.21
2022-08-17T11:26:26.390Z,30.35
2022-08-17T11:29:36.705Z,30.75
2022-08-17T11:32:47.337Z,31.55
2022-08-17T11:35:56.265Z,32.46
2022-08-17T11:39:05.430Z,32.35
2022-08-17T11:42:21.372Z,32.26
2022-08-17T11:45:43.072Z,32.59
2022-08-17T11:49:15.236Z,32.75
2022-08-17T11:52:39.303Z,32.26
2022-08-17T11:56:05.494Z,32.36
2022-08-17T11:59:45.875Z,32.70
2022-08-17T12:03:26.357Z,32.19
2022-08-17T12:06:35.306Z,31.46
2022-08-17T12:09:42.145Z,31.10
2022-08-17T12:12:49.075Z,30.92
2022-08-17T12:15:54.034Z,30.54
2022-08-17T12:18:59.605Z,30.41
2022-08-17T12:22:10.719Z,30.20
2022-08-17T12:25:21.654Z,30.32
2022-08-17T12:28:27.738Z,30.42
2022-08-17T12:31:34.593Z,30.56
2022-08-17T12:34:42.260Z,30.46
2022-08-17T12:37:48.738Z,30.67
2022-08-17T12:40:55.021Z,30.99
2022-08-17T12:44:02.760Z,31.06
2022-08-17T12:47:19.377Z,30.99
2022-08-17T12:50:29.913Z,31.06
2022-08-17T12:53:35.823Z,31.19
2022-08-17T12:56:38.447Z,31.56
2022-08-17T12:59:43.934Z,31.49
2022-08-17T13:02:50.829Z,32.07
2022-08-17T13:06:00.877Z,32.70
2022-08-17T13:09:10.731Z,32.59
2022-08-17T13:12:13.292Z,32.80
2022-08-17T13:15:23.042Z,32.13
2022-08-17T13:18:47.274Z,31.94
2022-08-17T13:21:54.062Z,31.78
2022-08-17T13:25:00.926Z,31.37
2022-08-17T13:28:03.694Z,31.54
2022-08-17T13:31:32.564Z,31.13
2022-08-17T13:35:07.743Z,30.74
2022-08-17T13:38:06.810Z,30.58
2022-08-17T13:41:29.507Z,30.48
2022-08-17T13:44:34.966Z,30.43
2022-08-17T13:47:37.599Z,30.33
2022-08-17T13:50:43.246Z,30.27
2022-08-17T13:53:55.748Z,30.26
2022-08-17T13:57:01.865Z,30.25
2022-08-17T14:00:11.766Z,30.04
2022-08-17T14:03:15.234Z,30.02
2022-08-17T14:06:51.507Z,29.99
2022-08-17T14:09:47.683Z,29.93
2022-08-17T14:12:50.814Z,29.92
2022-08-17T14:15:55.024Z,29.89
2022-08-17T14:18:59.041Z,29.90
2022-08-17T14:22:01.827Z,29.89
2022-08-17T14:25:10.272Z,29.98
2022-08-17T14:28:13.416Z,29.99
2022-08-17T14:31:16.052Z,30.00
2022-08-17T14:34:18.817Z,29.93
2022-08-17T14:37:25.346Z,29.95
2022-08-17T14:40:29.492Z,29.90
2022-08-17T14:43:34.997Z,29.87
2022-08-17T14:46:37.731Z,29.84
2022-08-17T14:49:40.294Z,29.90
2022-08-17T14:52:43.492Z,29.87
2022-08-17T14:55:47.459Z,29.88
2022-08-17T14:58:51.798Z,29.87
2022-08-17T15:01:56.973Z,29.83
2022-08-17T15:05:01.662Z,29.82
2022-08-17T15:08:05.759Z,29.79
2022-08-17T15:11:14.191Z,29.76
2022-08-17T15:14:17.253Z,29.65
2022-08-17T15:17:19.831Z,29.53
2022-08-17T15:20:24.666Z,29.50
2022-08-17T15:23:27.882Z,29.48
2022-08-17T15:26:32.071Z,29.50
2022-08-17T15:29:34.671Z,29.45
2022-08-17T15:32:40.507Z,29.38
2022-08-17T15:35:43.626Z,29.35
2022-08-17T15:38:47.212Z,29.29
2022-08-17T15:41:58.729Z,29.31
2022-08-17T15:45:06.750Z,29.28
2022-08-17T15:48:09.934Z,29.30
2022-08-17T15:51:14.742Z,29.30
2022-08-17T15:54:22.333Z,29.28
2022-08-17T15:57:27.507Z,29.28
2022-08-17T16:00:30.517Z,29.20
2022-08-17T16:04:01.376Z,29.16
2022-08-17T16:07:01.492Z,29.06
2022-08-17T16:10:06.128Z,29.04
2022-08-17T16:13:17.777Z,28.95
2022-08-17T16:16:20.847Z,28.81
2022-08-17T16:19:23.452Z,28.67
2022-08-17T16:22:32.558Z,28.62
2022-08-17T16:25:49.226Z,28.51
2022-08-17T16:28:58.033Z,28.34
2022-08-17T16:32:12.782Z,28.19
2022-08-17T16:35:18.025Z,28.19
2022-08-17T16:38:20.893Z,28.28
2022-08-17T16:41:45.054Z,28.16
2022-08-17T16:44:49.218Z,28.13
2022-08-17T16:47:52.268Z,28.10
2022-08-17T16:51:03.419Z,28.10
2022-08-17T16:54:08.149Z,28.03
2022-08-17T16:57:11.073Z,27.98
2022-08-17T17:00:19.366Z,27.93
2022-08-17T17:03:27.012Z,27.67
2022-08-17T17:06:44.979Z,27.52
2022-08-17T17:09:48.974Z,27.55
2022-08-17T17:13:03.059Z,27.41
2022-08-17T17:16:18.462Z,27.18
2022-08-17T17:19:34.519Z,27.22
2022-08-17T17:22:47.114Z,27.15
2022-08-17T17:25:58.348Z,27.03
2022-08-17T17:29:16.242Z,26.93
2022-08-17T17:32:25.862Z,26.88
2022-08-17T17:35:33.694Z,26.78
2022-08-17T17:38:43.909Z,26.76
2022-08-17T17:41:49.936Z,26.76
2022-08-17T17:45:00.042Z,26.69
2022-08-17T17:48:04.479Z,26.48
2022-08-17T17:52:08.500Z,26.50
2022-08-17T17:54:55.099Z,26.51
2022-08-17T17:58:07.866Z,26.53
2022-08-17T18:01:31.409Z,26.51
2022-08-17T18:04:45.901Z,26.46
2022-08-17T18:07:56.451Z,26.26
2022-08-17T18:11:08.448Z,26.35
2022-08-17T18:14:24.335Z,26.22
2022-08-17T18:17:30.949Z,26.17
2022-08-17T18:20:46.684Z,26.12
2022-08-17T18:24:00.556Z,26.13
2022-08-17T18:27:08.599Z,26.13
2022-08-17T18:30:27.358Z,25.89
2022-08-17T18:33:30.072Z,25.55
2022-08-17T18:36:37.262Z,24.20
2022-08-17T18:39:40.053Z,23.31
2022-08-17T18:42:45.705Z,22.41
2022-08-17T18:45:50.351Z,22.42
2022-08-17T18:48:58.970Z,22.58
2022-08-17T18:52:14.111Z,22.59
2022-08-17T18:55:22.380Z,22.37
2022-08-17T18:58:26.623Z,22.54
2022-08-17T19:01:52.150Z,22.31
2022-08-17T19:05:07.223Z,22.02
2022-08-17T19:08:21.747Z,22.02
2022-08-17T19:11:30.021Z,22.16
2022-08-17T19:14:33.465Z,22.26
2022-08-17T19:17:43.763Z,22.06
2022-08-17T19:20:54.793Z,22.00
2022-08-17T19:24:05.911Z,22.27
2022-08-17T19:27:15.091Z,22.27
2022-08-17T19:30:21.253Z,22.35
2022-08-17T19:33:24.074Z,22.21
2022-08-17T19:36:36.888Z,22.19
2022-08-17T19:39:51.448Z,22.08
2022-08-17T19:43:03.591Z,22.03
2022-08-17T19:46:17.787Z,22.05
2022-08-17T19:49:41.415Z,22.21
2022-08-17T19:52:52.726Z,22.03
2022-08-17T19:56:04.214Z,21.88
2022-08-17T19:59:14.249Z,21.78
2022-08-17T20:02:27.359Z,21.87
2022-08-17T20:05:44.411Z,22.11
2022-08-17T20:09:00.231Z,22.15
2022-08-17T20:12:09.392Z,22.09
2022-08-17T20:15:26.166Z,22.05
2022-08-17T20:18:36.217Z,22.06
2022-08-17T20:21:46.205Z,22.00
2022-08-17T20:24:55.197Z,22.01
2022-08-17T20:28:05.887Z,21.91
2022-08-17T20:31:42.042Z,21.97
2022-08-17T20:34:47.977Z,22.01
2022-08-17T20:37:57.640Z,21.89
2022-08-17T20:41:12.424Z,21.92
2022-08-17T20:44:33.834Z,22.00
2022-08-17T20:48:07.416Z,21.92
2022-08-17T20:51:20.047Z,21.80
2022-08-17T20:54:46.027Z,21.81
2022-08-17T20:57:49.318Z,21.84
2022-08-17T21:01:12.007Z,21.74
2022-08-17T21:04:47.338Z,21.78
2022-08-17T21:07:57.883Z,21.73
2022-08-17T21:11:02.443Z,21.65
2022-08-17T21:14:10.119Z,21.63
2022-08-17T21:17:31.023Z,21.51
2022-08-17T21:20:45.759Z,21.61
2022-08-17T21:24:03.700Z,21.38
2022-08-17T21:27:21.395Z,21.47
2022-08-17T21:30:47.491Z,21.48
2022-08-17T21:34:24.704Z,21.39
2022-08-17T21:37:32.690Z,21.41
2022-08-17T21:40:35.511Z,21.37
2022-08-17T21:43:49.710Z,21.38
2022-08-17T21:46:54.175Z,21.39
2022-08-17T21:50:16.019Z,21.43
2022-08-17T21:53:29.385Z,21.48
2022-08-17T21:56:39.630Z,21.49
2022-08-17T21:59:44.115Z,21.53
2022-08-17T22:02:55.764Z,21.37
2022-08-17T22:05:59.751Z,21.38
2022-08-17T22:09:19.221Z,21.41
2022-08-17T22:12:24.134Z,21.36
2022-08-17T22:15:26.782Z,21.23
2022-08-17T22:18:30.058Z,21.29
2022-08-17T22:21:34.010Z,21.27
2022-08-17T22:24:37.707Z,21.23
2022-08-17T22:27:49.917Z,21.25
2022-08-17T22:31:03.425Z,21.18
2022-08-17T22:34:15.198Z,21.16
2022-08-17T22:37:28.764Z,21.10
2022-08-17T22:40:34.379Z,21.13
2022-08-17T22:43:43.657Z,21.00
2022-08-17T22:46:56.240Z,21.00
2022-08-17T22:50:01.109Z,20.92
2022-08-17T22:53:33.888Z,20.99
2022-08-17T22:56:54.696Z,20.93
2022-08-17T22:59:57.977Z,20.95
2022-08-17T23:03:11.378Z,20.88
2022-08-17T23:06:14.001Z,20.92
2022-08-17T23:09:17.961Z,20.93
2022-08-17T23:12:26.318Z,20.96
2022-08-17T23:15:33.860Z,20.88
2022-08-17T23:18:37.330Z,20.95
2022-08-17T23:21:40.428Z,20.94
2022-08-17T23:24:48.910Z,20.92
2022-08-17T23:27:51.597Z,20.90
2022-08-17T23:30:54.312Z,20.92
2022-08-17T23:33:57.628Z,20.86
2022-08-17T23:37:04.197Z,20.96
2022-08-17T23:40:09.620Z,20.99
2022-08-17T23:43:24.878Z,21.01
2022-08-17T23:46:28.099Z,20.87
2022-08-17T23:49:31.275Z,20.96
2022-08-17T23:52:37.774Z,20.99
2022-08-17T23:55:41.701Z,20.98
2022-08-17T23:58:44.989Z,20.99
